sensor_id;sensor_type;location;lat;lon;timestamp;pressure;altitude;pressure_sealevel;temperature;humidity
19884;BME280;10104;50.732;10.174;2023-03-03T00:01:00;98309.84;;;0.65;64.43
19884;BME280;10104;50.732;10.174;2023-03-03T00:03:23;98301.41;;;0.51;64.64
19884;BME280;10104;50.732;10.174;2023-03-03T00:05:46;98298.69;;;0.52;65.22
19884;BME280;10104;50.732;10.174;2023-03-03T00:08:08;98303.31;;;0.49;64.80
19884;BME280;10104;50.732;10.174;2023-03-03T00:10:30;98302.88;;;0.55;64.22
19884;BME280;10104;50.732;10.174;2023-03-03T00:12:52;98302.50;;;0.59;63.83
19884;BME280;10104;50.732;10.174;2023-03-03T00:15:15;98304.16;;;0.49;64.69
19884;BME280;10104;50.732;10.174;2023-03-03T00:17:38;98317.81;;;0.29;66.17
19884;BME280;10104;50.732;10.174;2023-03-03T00:20:01;98318.66;;;0.29;65.49
19884;BME280;10104;50.732;10.174;2023-03-03T00:22:35;98310.69;;;0.20;68.02
19884;BME280;10104;50.732;10.174;2023-03-03T00:25:23;98315.13;;;0.30;66.40
19884;BME280;10104;50.732;10.174;2023-03-03T00:27:47;98310.13;;;0.27;66.67
19884;BME280;10104;50.732;10.174;2023-03-03T00:30:38;98314.38;;;0.28;65.67
19884;BME280;10104;50.732;10.174;2023-03-03T00:32:59;98318.28;;;0.23;65.34
19884;BME280;10104;50.732;10.174;2023-03-03T00:35:29;98306.13;;;0.34;65.04
19884;BME280;10104;50.732;10.174;2023-03-03T00:37:57;98307.81;;;0.47;65.31
19884;BME280;10104;50.732;10.174;2023-03-03T00:40:23;98312.72;;;0.27;65.65
19884;BME280;10104;50.732;10.174;2023-03-03T00:42:48;98312.00;;;0.25;65.44
19884;BME280;10104;50.732;10.174;2023-03-03T00:48:19;98294.97;;;0.32;65.21
19884;BME280;10104;50.732;10.174;2023-03-03T00:50:42;98304.03;;;0.16;67.09
19884;BME280;10104;50.732;10.174;2023-03-03T00:53:13;98308.59;;;0.01;68.36
19884;BME280;10104;50.732;10.174;2023-03-03T00:55:37;98305.88;;;0.03;67.61
19884;BME280;10104;50.732;10.174;2023-03-03T00:57:58;98300.13;;;0.10;67.13
19884;BME280;10104;50.732;10.174;2023-03-03T01:00:20;98301.19;;;0.19;66.58
19884;BME280;10104;50.732;10.174;2023-03-03T01:02:42;98298.03;;;-0.09;70.15
19884;BME280;10104;50.732;10.174;2023-03-03T01:05:09;98300.47;;;-0.18;72.53
19884;BME280;10104;50.732;10.174;2023-03-03T01:07:33;98299.56;;;-0.06;70.33
19884;BME280;10104;50.732;10.174;2023-03-03T01:09:54;98296.75;;;-0.03;69.96
19884;BME280;10104;50.732;10.174;2023-03-03T01:12:16;98305.44;;;-0.15;72.08
19884;BME280;10104;50.732;10.174;2023-03-03T01:14:38;98311.03;;;-0.09;71.67
19884;BME280;10104;50.732;10.174;2023-03-03T01:17:00;98313.41;;;-0.06;72.03
19884;BME280;10104;50.732;10.174;2023-03-03T01:19:21;98310.09;;;0.16;71.13
19884;BME280;10104;50.732;10.174;2023-03-03T01:21:43;98307.78;;;0.35;71.03
19884;BME280;10104;50.732;10.174;2023-03-03T01:24:04;98314.31;;;0.06;76.64
19884;BME280;10104;50.732;10.174;2023-03-03T01:26:26;98313.94;;;0.34;72.64
19884;BME280;10104;50.732;10.174;2023-03-03T01:28:47;98319.78;;;0.14;75.92
19884;BME280;10104;50.732;10.174;2023-03-03T01:31:09;98326.38;;;0.42;72.49
19884;BME280;10104;50.732;10.174;2023-03-03T01:33:32;98327.53;;;0.38;74.33
19884;BME280;10104;50.732;10.174;2023-03-03T01:35:54;98324.38;;;0.46;73.09
19884;BME280;10104;50.732;10.174;2023-03-03T01:38:15;98318.81;;;0.50;76.55
19884;BME280;10104;50.732;10.174;2023-03-03T01:40:37;98324.44;;;0.68;74.58
19884;BME280;10104;50.732;10.174;2023-03-03T01:42:59;98316.28;;;0.84;73.90
19884;BME280;10104;50.732;10.174;2023-03-03T01:45:29;98321.50;;;0.84;76.89
19884;BME280;10104;50.732;10.174;2023-03-03T01:48:00;98317.59;;;0.89;75.64
19884;BME280;10104;50.732;10.174;2023-03-03T01:50:49;98308.34;;;1.07;74.51
19884;BME280;10104;50.732;10.174;2023-03-03T01:53:27;98320.09;;;1.13;74.70
19884;BME280;10104;50.732;10.174;2023-03-03T01:55:51;98312.25;;;1.24;74.46
19884;BME280;10104;50.732;10.174;2023-03-03T01:58:18;98306.22;;;1.35;73.87
19884;BME280;10104;50.732;10.174;2023-03-03T02:00:44;98308.00;;;1.34;76.57
19884;BME280;10104;50.732;10.174;2023-03-03T02:03:06;98313.31;;;1.33;76.73
19884;BME280;10104;50.732;10.174;2023-03-03T02:05:28;98309.75;;;1.45;74.77
19884;BME280;10104;50.732;10.174;2023-03-03T02:07:50;98309.50;;;1.59;74.13
19884;BME280;10104;50.732;10.174;2023-03-03T02:10:16;98308.34;;;1.41;80.21
19884;BME280;10104;50.732;10.174;2023-03-03T02:12:46;98309.84;;;1.54;77.14
19884;BME280;10104;50.732;10.174;2023-03-03T02:15:16;98308.06;;;1.66;75.94
19884;BME280;10104;50.732;10.174;2023-03-03T02:17:38;98299.09;;;1.80;75.34
19884;BME280;10104;50.732;10.174;2023-03-03T02:22:37;98304.34;;;1.80;79.81
19884;BME280;10104;50.732;10.174;2023-03-03T02:25:02;98309.88;;;1.86;77.03
19884;BME280;10104;50.732;10.174;2023-03-03T02:27:27;98313.28;;;1.98;76.66
19884;BME280;10104;50.732;10.174;2023-03-03T02:29:51;98323.88;;;1.96;78.91
19884;BME280;10104;50.732;10.174;2023-03-03T02:32:13;98321.78;;;1.90;81.23
19884;BME280;10104;50.732;10.174;2023-03-03T02:34:51;98319.94;;;2.02;78.26
19884;BME280;10104;50.732;10.174;2023-03-03T02:37:12;98317.44;;;2.00;79.13
19884;BME280;10104;50.732;10.174;2023-03-03T02:39:34;98328.72;;;2.01;80.54
19884;BME280;10104;50.732;10.174;2023-03-03T02:42:00;98327.06;;;2.00;86.15
19884;BME280;10104;50.732;10.174;2023-03-03T02:44:25;98319.69;;;2.05;82.01
19884;BME280;10104;50.732;10.174;2023-03-03T02:46:49;98323.06;;;2.17;80.32
19884;BME280;10104;50.732;10.174;2023-03-03T02:49:13;98327.63;;;2.15;82.05
19884;BME280;10104;50.732;10.174;2023-03-03T02:51:35;98321.63;;;2.24;81.08
19884;BME280;10104;50.732;10.174;2023-03-03T02:53:57;98317.56;;;2.31;80.32
19884;BME280;10104;50.732;10.174;2023-03-03T02:56:19;98308.28;;;2.38;79.26
19884;BME280;10104;50.732;10.174;2023-03-03T02:58:40;98306.09;;;2.43;78.67
19884;BME280;10104;50.732;10.174;2023-03-03T03:01:02;98303.38;;;2.44;79.36
19884;BME280;10104;50.732;10.174;2023-03-03T03:03:24;98298.59;;;2.50;78.39
19884;BME280;10104;50.732;10.174;2023-03-03T03:05:45;98304.09;;;2.47;80.41
19884;BME280;10104;50.732;10.174;2023-03-03T03:08:07;98306.88;;;2.55;80.64
19884;BME280;10104;50.732;10.174;2023-03-03T03:10:28;98310.31;;;2.34;85.38
19884;BME280;10104;50.732;10.174;2023-03-03T03:12:51;98313.34;;;2.19;87.93
19884;BME280;10104;50.732;10.174;2023-03-03T03:15:12;98312.41;;;2.20;90.35
19884;BME280;10104;50.732;10.174;2023-03-03T03:17:36;98313.09;;;2.22;90.62
19884;BME280;10104;50.732;10.174;2023-03-03T03:19:57;98310.34;;;2.23;91.08
19884;BME280;10104;50.732;10.174;2023-03-03T03:22:19;98317.28;;;2.13;91.81
19884;BME280;10104;50.732;10.174;2023-03-03T03:24:40;98312.00;;;2.24;90.80
19884;BME280;10104;50.732;10.174;2023-03-03T03:27:02;98317.31;;;2.34;88.51
19884;BME280;10104;50.732;10.174;2023-03-03T03:29:24;98315.06;;;2.29;90.90
19884;BME280;10104;50.732;10.174;2023-03-03T03:31:45;98309.59;;;2.32;89.82
19884;BME280;10104;50.732;10.174;2023-03-03T03:34:07;98313.22;;;2.41;89.33
19884;BME280;10104;50.732;10.174;2023-03-03T03:36:28;98316.50;;;2.33;90.09
19884;BME280;10104;50.732;10.174;2023-03-03T03:38:49;98309.91;;;2.18;92.87
19884;BME280;10104;50.732;10.174;2023-03-03T03:41:12;98313.72;;;2.14;93.30
19884;BME280;10104;50.732;10.174;2023-03-03T03:43:34;98316.78;;;2.19;93.30
19884;BME280;10104;50.732;10.174;2023-03-03T03:45:55;98318.34;;;2.22;92.24
19884;BME280;10104;50.732;10.174;2023-03-03T03:48:17;98322.84;;;2.20;93.86
19884;BME280;10104;50.732;10.174;2023-03-03T03:50:40;98329.41;;;2.14;95.21
19884;BME280;10104;50.732;10.174;2023-03-03T03:53:02;98334.31;;;1.96;96.31
19884;BME280;10104;50.732;10.174;2023-03-03T03:55:23;98328.84;;;1.99;96.76
19884;BME280;10104;50.732;10.174;2023-03-03T03:57:44;98328.78;;;2.11;96.25
19884;BME280;10104;50.732;10.174;2023-03-03T04:00:07;98330.56;;;2.21;94.59
19884;BME280;10104;50.732;10.174;2023-03-03T04:02:29;98335.22;;;2.07;96.28
19884;BME280;10104;50.732;10.174;2023-03-03T04:04:51;98339.88;;;2.03;97.53
19884;BME280;10104;50.732;10.174;2023-03-03T04:07:12;98329.56;;;2.01;97.24
19884;BME280;10104;50.732;10.174;2023-03-03T04:09:34;98338.47;;;1.99;97.75
19884;BME280;10104;50.732;10.174;2023-03-03T04:11:55;98344.63;;;1.98;98.60
19884;BME280;10104;50.732;10.174;2023-03-03T04:14:17;98333.03;;;1.91;97.54
19884;BME280;10104;50.732;10.174;2023-03-03T04:16:38;98332.94;;;1.81;98.83
19884;BME280;10104;50.732;10.174;2023-03-03T04:19:00;98339.13;;;1.69;100.00
19884;BME280;10104;50.732;10.174;2023-03-03T04:21:21;98340.81;;;1.59;100.00
19884;BME280;10104;50.732;10.174;2023-03-03T04:23:43;98338.34;;;1.46;100.00
19884;BME280;10104;50.732;10.174;2023-03-03T04:26:04;98330.38;;;1.59;100.00
19884;BME280;10104;50.732;10.174;2023-03-03T04:28:25;98322.53;;;1.70;99.99
19884;BME280;10104;50.732;10.174;2023-03-03T04:30:47;98327.97;;;1.67;100.00
19884;BME280;10104;50.732;10.174;2023-03-03T04:33:09;98332.97;;;1.70;100.00
19884;BME280;10104;50.732;10.174;2023-03-03T04:35:30;98344.13;;;1.61;100.00
19884;BME280;10104;50.732;10.174;2023-03-03T04:37:52;98346.72;;;1.61;100.00
19884;BME280;10104;50.732;10.174;2023-03-03T04:40:14;98341.75;;;1.58;100.00
19884;BME280;10104;50.732;10.174;2023-03-03T04:42:36;98342.91;;;1.76;100.00
19884;BME280;10104;50.732;10.174;2023-03-03T04:44:58;98339.84;;;1.71;100.00
19884;BME280;10104;50.732;10.174;2023-03-03T04:47:19;98342.91;;;1.76;100.00
19884;BME280;10104;50.732;10.174;2023-03-03T04:49:41;98337.44;;;1.90;99.19
19884;BME280;10104;50.732;10.174;2023-03-03T04:52:03;98337.47;;;2.11;98.54
19884;BME280;10104;50.732;10.174;2023-03-03T04:54:25;98337.13;;;2.16;98.26
19884;BME280;10104;50.732;10.174;2023-03-03T04:56:46;98347.47;;;2.06;98.93
19884;BME280;10104;50.732;10.174;2023-03-03T04:59:08;98340.94;;;2.00;99.52
19884;BME280;10104;50.732;10.174;2023-03-03T05:01:29;98345.84;;;1.94;100.00
19884;BME280;10104;50.732;10.174;2023-03-03T05:03:51;98347.38;;;1.85;100.00
19884;BME280;10104;50.732;10.174;2023-03-03T05:06:12;98345.97;;;1.81;100.00
19884;BME280;10104;50.732;10.174;2023-03-03T05:08:34;98343.63;;;1.78;100.00
19884;BME280;10104;50.732;10.174;2023-03-03T05:10:55;98351.91;;;1.83;100.00
19884;BME280;10104;50.732;10.174;2023-03-03T05:13:17;98357.75;;;1.76;100.00
19884;BME280;10104;50.732;10.174;2023-03-03T05:15:39;98359.97;;;1.80;100.00
19884;BME280;10104;50.732;10.174;2023-03-03T05:18:03;98366.28;;;1.78;100.00
19884;BME280;10104;50.732;10.174;2023-03-03T05:20:25;98365.91;;;1.82;100.00
19884;BME280;10104;50.732;10.174;2023-03-03T05:22:47;98365.09;;;1.82;100.00
19884;BME280;10104;50.732;10.174;2023-03-03T05:25:08;98359.03;;;1.81;100.00
19884;BME280;10104;50.732;10.174;2023-03-03T05:27:31;98356.19;;;1.84;100.00
19884;BME280;10104;50.732;10.174;2023-03-03T05:29:52;98369.47;;;1.81;100.00
19884;BME280;10104;50.732;10.174;2023-03-03T05:32:14;98363.53;;;1.90;100.00
19884;BME280;10104;50.732;10.174;2023-03-03T05:34:36;98365.84;;;2.04;100.00
19884;BME280;10104;50.732;10.174;2023-03-03T05:36:57;98367.31;;;1.86;100.00
19884;BME280;10104;50.732;10.174;2023-03-03T05:39:19;98368.91;;;1.78;100.00
19884;BME280;10104;50.732;10.174;2023-03-03T05:41:40;98375.06;;;1.77;100.00
19884;BME280;10104;50.732;10.174;2023-03-03T05:44:02;98364.75;;;1.75;100.00
19884;BME280;10104;50.732;10.174;2023-03-03T05:46:24;98364.72;;;1.86;100.00
19884;BME280;10104;50.732;10.174;2023-03-03T05:48:46;98365.09;;;1.82;100.00
19884;BME280;10104;50.732;10.174;2023-03-03T05:51:07;98362.72;;;1.79;100.00
19884;BME280;10104;50.732;10.174;2023-03-03T05:53:29;98368.06;;;1.77;100.00
19884;BME280;10104;50.732;10.174;2023-03-03T05:55:50;98377.06;;;1.73;100.00
19884;BME280;10104;50.732;10.174;2023-03-03T05:58:12;98387.88;;;1.69;100.00
19884;BME280;10104;50.732;10.174;2023-03-03T06:00:34;98380.63;;;1.83;100.00
19884;BME280;10104;50.732;10.174;2023-03-03T06:02:55;98376.25;;;1.84;100.00
19884;BME280;10104;50.732;10.174;2023-03-03T06:05:17;98380.88;;;1.80;100.00
19884;BME280;10104;50.732;10.174;2023-03-03T06:07:39;98379.53;;;1.86;100.00
19884;BME280;10104;50.732;10.174;2023-03-03T06:10:00;98388.84;;;1.79;100.00
19884;BME280;10104;50.732;10.174;2023-03-03T06:12:22;98395.34;;;1.73;100.00
19884;BME280;10104;50.732;10.174;2023-03-03T06:14:43;98404.97;;;1.61;100.00
19884;BME280;10104;50.732;10.174;2023-03-03T06:17:05;98413.50;;;1.75;100.00
19884;BME280;10104;50.732;10.174;2023-03-03T06:19:26;98409.72;;;1.79;100.00
19884;BME280;10104;50.732;10.174;2023-03-03T06:21:48;98409.84;;;1.77;100.00
19884;BME280;10104;50.732;10.174;2023-03-03T06:24:09;98404.97;;;1.84;99.77
19884;BME280;10104;50.732;10.174;2023-03-03T06:26:31;98410.31;;;1.82;100.00
19884;BME280;10104;50.732;10.174;2023-03-03T06:28:53;98407.44;;;1.74;100.00
19884;BME280;10104;50.732;10.174;2023-03-03T06:31:15;98409.72;;;1.79;100.00
19884;BME280;10104;50.732;10.174;2023-03-03T06:33:37;98414.69;;;1.82;100.00
19884;BME280;10104;50.732;10.174;2023-03-03T06:35:58;98410.06;;;1.63;100.00
19884;BME280;10104;50.732;10.174;2023-03-03T06:38:20;98409.97;;;1.65;100.00
19884;BME280;10104;50.732;10.174;2023-03-03T06:40:41;98418.03;;;1.73;100.00
19884;BME280;10104;50.732;10.174;2023-03-03T06:43:03;98428.56;;;1.93;99.53
19884;BME280;10104;50.732;10.174;2023-03-03T06:45:24;98414.47;;;1.85;99.19
19884;BME280;10104;50.732;10.174;2023-03-03T06:47:46;98413.75;;;1.83;99.38
19884;BME280;10104;50.732;10.174;2023-03-03T06:50:10;98425.16;;;1.71;100.00
19884;BME280;10104;50.732;10.174;2023-03-03T06:52:32;98427.88;;;1.69;100.00
19884;BME280;10104;50.732;10.174;2023-03-03T06:54:56;98435.47;;;1.83;99.67
19884;BME280;10104;50.732;10.174;2023-03-03T06:57:27;98428.78;;;1.79;99.24
19884;BME280;10104;50.732;10.174;2023-03-03T06:59:52;98424.75;;;1.86;99.13
19884;BME280;10104;50.732;10.174;2023-03-03T07:02:17;98434.38;;;1.86;99.35
19884;BME280;10104;50.732;10.174;2023-03-03T07:04:39;98437.09;;;1.95;97.87
19884;BME280;10104;50.732;10.174;2023-03-03T07:09:36;98443.06;;;1.97;97.84
19884;BME280;10104;50.732;10.174;2023-03-03T07:12:05;98435.47;;;1.83;99.50
19884;BME280;10104;50.732;10.174;2023-03-03T07:14:30;98446.47;;;2.09;98.05
19884;BME280;10104;50.732;10.174;2023-03-03T07:17:03;98446.66;;;2.17;97.17
19884;BME280;10104;50.732;10.174;2023-03-03T07:19:34;98452.25;;;2.24;96.30
19884;BME280;10104;50.732;10.174;2023-03-03T07:21:56;98446.03;;;2.36;95.86
19884;BME280;10104;50.732;10.174;2023-03-03T07:26:42;98446.31;;;2.22;96.35
19884;BME280;10104;50.732;10.174;2023-03-03T07:29:21;98451.19;;;2.26;95.58
19884;BME280;10104;50.732;10.174;2023-03-03T07:31:46;98451.66;;;2.20;95.51
19884;BME280;10104;50.732;10.174;2023-03-03T07:34:37;98452.13;;;2.25;95.26
19884;BME280;10104;50.732;10.174;2023-03-03T07:37:01;98447.47;;;2.29;95.33
19884;BME280;10104;50.732;10.174;2023-03-03T07:39:39;98442.38;;;2.38;94.59
19884;BME280;10104;50.732;10.174;2023-03-03T07:42:17;98441.75;;;2.35;94.64
19884;BME280;10104;50.732;10.174;2023-03-03T07:44:40;98439.03;;;2.36;94.56
19884;BME280;10104;50.732;10.174;2023-03-03T07:47:22;98443.53;;;2.46;93.93
19884;BME280;10104;50.732;10.174;2023-03-03T07:49:46;98445.09;;;2.37;94.54
19884;BME280;10104;50.732;10.174;2023-03-03T07:52:23;98453.59;;;2.50;94.18
19884;BME280;10104;50.732;10.174;2023-03-03T07:54:46;98461.69;;;2.47;93.14
19884;BME280;10104;50.732;10.174;2023-03-03T07:57:14;98463.59;;;2.45;93.07
19884;BME280;10104;50.732;10.174;2023-03-03T07:59:48;98461.69;;;2.47;92.81
19884;BME280;10104;50.732;10.174;2023-03-03T08:02:30;98457.72;;;2.64;92.35
19884;BME280;10104;50.732;10.174;2023-03-03T08:04:54;98461.84;;;2.77;91.01
19884;BME280;10104;50.732;10.174;2023-03-03T08:07:17;98467.53;;;2.82;91.08
19884;BME280;10104;50.732;10.174;2023-03-03T08:14:41;98473.13;;;2.99;89.30
19884;BME280;10104;50.732;10.174;2023-03-03T08:17:35;98472.41;;;3.08;88.37
19884;BME280;10104;50.732;10.174;2023-03-03T08:19:57;98480.47;;;3.05;89.07
19884;BME280;10104;50.732;10.174;2023-03-03T08:22:32;98483.22;;;3.03;88.96
19884;BME280;10104;50.732;10.174;2023-03-03T08:24:55;98487.44;;;3.15;88.12
19884;BME280;10104;50.732;10.174;2023-03-03T08:27:16;98489.88;;;3.28;87.89
19884;BME280;10104;50.732;10.174;2023-03-03T08:29:38;98481.91;;;3.30;86.75
19884;BME280;10104;50.732;10.174;2023-03-03T08:31:59;98485.16;;;3.43;86.21
19884;BME280;10104;50.732;10.174;2023-03-03T08:34:21;98487.13;;;3.50;85.59
19884;BME280;10104;50.732;10.174;2023-03-03T08:36:42;98488.91;;;3.50;85.76
19884;BME280;10104;50.732;10.174;2023-03-03T08:39:04;98491.41;;;3.51;84.84
19884;BME280;10104;50.732;10.174;2023-03-03T08:41:25;98486.63;;;3.56;84.58
19884;BME280;10104;50.732;10.174;2023-03-03T08:43:47;98488.72;;;3.62;85.28
19884;BME280;10104;50.732;10.174;2023-03-03T08:46:09;98487.16;;;3.60;85.12
19884;BME280;10104;50.732;10.174;2023-03-03T08:48:32;98495.53;;;3.75;84.23
19884;BME280;10104;50.732;10.174;2023-03-03T08:50:54;98500.66;;;3.76;84.84
19884;BME280;10104;50.732;10.174;2023-03-03T08:53:17;98492.41;;;3.90;83.82
19884;BME280;10104;50.732;10.174;2023-03-03T08:55:40;98495.94;;;4.00;83.63
19884;BME280;10104;50.732;10.174;2023-03-03T08:58:02;98491.22;;;3.94;84.34
19884;BME280;10104;50.732;10.174;2023-03-03T09:00:23;98506.22;;;3.92;85.05
19884;BME280;10104;50.732;10.174;2023-03-03T09:02:45;98507.66;;;4.06;84.02
19884;BME280;10104;50.732;10.174;2023-03-03T09:05:07;98507.78;;;4.04;83.39
19884;BME280;10104;50.732;10.174;2023-03-03T09:07:29;98516.50;;;4.15;81.47
19884;BME280;10104;50.732;10.174;2023-03-03T09:09:51;98529.59;;;4.05;81.85
19884;BME280;10104;50.732;10.174;2023-03-03T09:12:18;98533.69;;;3.98;81.35
19884;BME280;10104;50.732;10.174;2023-03-03T09:14:39;98536.28;;;3.88;82.22
19884;BME280;10104;50.732;10.174;2023-03-03T09:17:01;98536.00;;;3.91;82.86
19884;BME280;10104;50.732;10.174;2023-03-03T09:19:30;98534.75;;;3.95;82.60
19884;BME280;10104;50.732;10.174;2023-03-03T09:21:56;98541.03;;;4.04;81.84
19884;BME280;10104;50.732;10.174;2023-03-03T09:24:25;98534.59;;;3.87;83.20
19884;BME280;10104;50.732;10.174;2023-03-03T09:26:47;98537.56;;;4.03;81.97
19884;BME280;10104;50.732;10.174;2023-03-03T09:31:42;98533.25;;;4.23;81.03
19884;BME280;10104;50.732;10.174;2023-03-03T09:34:17;98527.06;;;4.34;79.65
19884;BME280;10104;50.732;10.174;2023-03-03T09:36:40;98533.66;;;4.19;80.61
19884;BME280;10104;50.732;10.174;2023-03-03T09:39:23;98531.06;;;4.28;79.50
19884;BME280;10104;50.732;10.174;2023-03-03T09:47:56;98540.69;;;4.28;80.30
19884;BME280;10104;50.732;10.174;2023-03-03T09:50:31;98536.47;;;4.46;78.43
19884;BME280;10104;50.732;10.174;2023-03-03T10:09:32;98550.91;;;4.71;75.53
19884;BME280;10104;50.732;10.174;2023-03-03T10:12:17;98561.25;;;4.63;73.62
19884;BME280;10104;50.732;10.174;2023-03-03T10:15:08;98554.47;;;4.70;74.89
19884;BME280;10104;50.732;10.174;2023-03-03T10:17:46;98555.47;;;4.69;75.33
19884;BME280;10104;50.732;10.174;2023-03-03T10:20:25;98552.81;;;4.59;74.90
19884;BME280;10104;50.732;10.174;2023-03-03T10:23:19;98546.50;;;4.71;75.01
19884;BME280;10104;50.732;10.174;2023-03-03T10:33:56;98553.94;;;4.66;73.09
19884;BME280;10104;50.732;10.174;2023-03-03T10:39:09;98550.09;;;4.89;73.65
19884;BME280;10104;50.732;10.174;2023-03-03T10:42:06;98558.00;;;4.99;72.74
19884;BME280;10104;50.732;10.174;2023-03-03T10:49:41;98556.63;;;5.53;69.05
19884;BME280;10104;50.732;10.174;2023-03-03T10:57:37;98552.34;;;5.42;70.57
19884;BME280;10104;50.732;10.174;2023-03-03T11:00:23;98550.81;;;5.01;73.44
19884;BME280;10104;50.732;10.174;2023-03-03T11:08:14;98553.09;;;4.66;75.67
19884;BME280;10104;50.732;10.174;2023-03-03T11:11:08;98552.56;;;4.81;75.75
19884;BME280;10104;50.732;10.174;2023-03-03T11:14:02;98544.81;;;4.70;76.08
19884;BME280;10104;50.732;10.174;2023-03-03T11:16:28;98551.84;;;4.60;75.97
19884;BME280;10104;50.732;10.174;2023-03-03T11:21:30;98555.47;;;4.29;78.30
19884;BME280;10104;50.732;10.174;2023-03-03T11:24:01;98539.81;;;4.48;76.80
19884;BME280;10104;50.732;10.174;2023-03-03T11:26:59;98547.50;;;4.40;76.63
19884;BME280;10104;50.732;10.174;2023-03-03T11:29:51;98549.88;;;4.43;76.23
19884;BME280;10104;50.732;10.174;2023-03-03T11:32:53;98550.94;;;4.31;77.40
19884;BME280;10104;50.732;10.174;2023-03-03T11:35:25;98550.09;;;4.30;77.42
19884;BME280;10104;50.732;10.174;2023-03-03T11:40:48;98549.59;;;4.46;76.66
19884;BME280;10104;50.732;10.174;2023-03-03T11:43:20;98544.22;;;4.47;75.56
19884;BME280;10104;50.732;10.174;2023-03-03T11:46:00;98544.94;;;4.59;75.50
19884;BME280;10104;50.732;10.174;2023-03-03T11:49:03;98540.00;;;4.66;75.33
19884;BME280;10104;50.732;10.174;2023-03-03T11:51:49;98542.34;;;4.69;75.00
19884;BME280;10104;50.732;10.174;2023-03-03T11:54:19;98541.41;;;4.79;74.77
19884;BME280;10104;50.732;10.174;2023-03-03T11:56:44;98534.19;;;4.72;74.23
19884;BME280;10104;50.732;10.174;2023-03-03T12:01:34;98522.78;;;5.11;73.44
19884;BME280;10104;50.732;10.174;2023-03-03T12:04:03;98526.66;;;5.17;73.40
19884;BME280;10104;50.732;10.174;2023-03-03T12:06:36;98518.63;;;5.28;70.98
19884;BME280;10104;50.732;10.174;2023-03-03T12:11:51;98514.19;;;5.48;68.82
19884;BME280;10104;50.732;10.174;2023-03-03T12:19:30;98504.41;;;5.21;70.21
19884;BME280;10104;50.732;10.174;2023-03-03T12:27:41;98501.91;;;5.29;70.22
19884;BME280;10104;50.732;10.174;2023-03-03T12:33:20;98503.81;;;5.46;69.01
19884;BME280;10104;50.732;10.174;2023-03-03T12:41:25;98501.91;;;5.48;68.58
19884;BME280;10104;50.732;10.174;2023-03-03T12:43:54;98493.69;;;5.70;66.87
19884;BME280;10104;50.732;10.174;2023-03-03T12:46:22;98492.06;;;6.06;64.96
19884;BME280;10104;50.732;10.174;2023-03-03T12:48:49;98491.25;;;5.87;64.57
19884;BME280;10104;50.732;10.174;2023-03-03T12:59:43;98480.22;;;5.93;65.80
19884;BME280;10104;50.732;10.174;2023-03-03T13:04:35;98472.78;;;6.16;64.83
19884;BME280;10104;50.732;10.174;2023-03-03T13:07:16;98480.75;;;5.96;65.95
19884;BME280;10104;50.732;10.174;2023-03-03T13:09:52;98483.34;;;6.06;64.49
19884;BME280;10104;50.732;10.174;2023-03-03T13:17:37;98490.78;;;5.74;67.86
19884;BME280;10104;50.732;10.174;2023-03-03T13:20:11;98488.94;;;5.84;66.03
19884;BME280;10104;50.732;10.174;2023-03-03T13:22:45;98482.34;;;5.70;66.41
19884;BME280;10104;50.732;10.174;2023-03-03T13:27:54;98484.25;;;5.68;66.72
19884;BME280;10104;50.732;10.174;2023-03-03T13:30:22;98481.91;;;5.75;66.72
19884;BME280;10104;50.732;10.174;2023-03-03T13:32:56;98481.06;;;5.74;65.61
19884;BME280;10104;50.732;10.174;2023-03-03T13:38:04;98479.63;;;5.99;65.59
19884;BME280;10104;50.732;10.174;2023-03-03T13:43:14;98478.97;;;5.97;67.49
19884;BME280;10104;50.732;10.174;2023-03-03T13:48:30;98472.16;;;6.31;67.63
19884;BME280;10104;50.732;10.174;2023-03-03T13:50:57;98473.91;;;6.13;65.49
19884;BME280;10104;50.732;10.174;2023-03-03T13:53:31;98464.66;;;6.09;67.17
19884;BME280;10104;50.732;10.174;2023-03-03T13:56:36;98455.94;;;6.08;65.50
19884;BME280;10104;50.732;10.174;2023-03-03T13:59:27;98455.19;;;5.98;64.82
19884;BME280;10104;50.732;10.174;2023-03-03T14:02:20;98463.56;;;5.65;66.83
19884;BME280;10104;50.732;10.174;2023-03-03T14:04:54;98452.84;;;5.39;68.12
19884;BME280;10104;50.732;10.174;2023-03-03T14:07:33;98459.09;;;5.28;68.70
19884;BME280;10104;50.732;10.174;2023-03-03T14:10:02;98460.44;;;5.33;69.61
19884;BME280;10104;50.732;10.174;2023-03-03T14:12:41;98446.78;;;5.29;72.47
19884;BME280;10104;50.732;10.174;2023-03-03T14:18:04;98445.25;;;5.36;70.04
19884;BME280;10104;50.732;10.174;2023-03-03T14:20:36;98436.41;;;5.27;69.05
19884;BME280;10104;50.732;10.174;2023-03-03T14:23:01;98432.38;;;5.33;69.77
19884;BME280;10104;50.732;10.174;2023-03-03T14:25:24;98429.91;;;5.32;67.94
19884;BME280;10104;50.732;10.174;2023-03-03T14:30:25;98441.13;;;5.14;67.96
19884;BME280;10104;50.732;10.174;2023-03-03T14:33:21;98436.16;;;5.02;68.32
19884;BME280;10104;50.732;10.174;2023-03-03T14:35:47;98435.34;;;5.01;69.10
19884;BME280;10104;50.732;10.174;2023-03-03T14:38:16;98436.72;;;4.96;70.92
19884;BME280;10104;50.732;10.174;2023-03-03T14:40:40;98436.84;;;5.13;69.17
19884;BME280;10104;50.732;10.174;2023-03-03T14:43:23;98440.88;;;5.17;68.22
19884;BME280;10104;50.732;10.174;2023-03-03T14:45:46;98430.06;;;5.20;68.28
19884;BME280;10104;50.732;10.174;2023-03-03T14:48:15;98429.06;;;5.31;67.57
19884;BME280;10104;50.732;10.174;2023-03-03T14:50:39;98430.91;;;5.21;69.16
19884;BME280;10104;50.732;10.174;2023-03-03T14:53:11;98429.53;;;5.17;69.61
19884;BME280;10104;50.732;10.174;2023-03-03T14:55:36;98427.44;;;5.20;68.94
19884;BME280;10104;50.732;10.174;2023-03-03T14:57:59;98423.28;;;5.27;69.18
19884;BME280;10104;50.732;10.174;2023-03-03T15:03:00;98427.56;;;5.28;68.69
19884;BME280;10104;50.732;10.174;2023-03-03T15:05:27;98417.03;;;5.38;68.32
19884;BME280;10104;50.732;10.174;2023-03-03T15:10:36;98412.78;;;5.27;67.49